Time;durP1;ratioP1;P1;durP2;ratioP2;P2;SDS_P1;SDS_P2;PMS_P1;PMS_P2;Temp;Humidity;BMP_temperature;BMP_pressure;BME280_temperature;BME280_humidity;BME280_pressure;Samples;Min_cycle;Max_cycle;Signal;HPM_P1;HPM_P2
2023/01/26 00:01:21;;;;;;;47.28;18.50;;;;;;;;;;8488027;27;20111;-86
2023/01/26 00:05:24;;;;;;;36.97;15.95;;;;;;;;;;8501296;27;20041;-84
2023/01/26 00:09:27;;;;;;;33.08;14.57;;;;;;;;;;8501314;27;20477;-85
2023/01/26 00:13:30;;;;;;;36.30;15.40;;;;;;;;;;8501007;27;20043;-84
2023/01/26 00:17:37;;;;;;;33.05;16.58;;;;;;;;;;8501188;27;20049;-84
2023/01/26 00:21:39;;;;;;;35.83;15.68;;;;;;;;;;8500651;27;20049;-83
2023/01/26 00:25:42;;;;;;;34.67;16.08;;;;;;;;;;8500961;27;20051;-84
2023/01/26 00:29:45;;;;;;;35.35;16.23;;;;;;;;;;8486742;27;20054;-85
2023/01/26 00:33:50;;;;;;;42.10;18.60;;;;;;;;;;8500239;27;20134;-85
2023/01/26 00:37:53;;;;;;;39.78;16.67;;;;;;;;;;8486388;27;20035;-84
2023/01/26 00:42:09;;;;;;;36.08;15.45;;;;;;;;;;8487954;27;20044;-85
2023/01/26 00:46:12;;;;;;;33.30;14.23;;;;;;;;;;8487366;27;20126;-85
2023/01/26 00:50:17;;;;;;;31.27;15.55;;;;;;;;;;8499198;27;20151;-85
2023/01/26 00:54:20;;;;;;;30.13;15.15;;;;;;;;;;8465842;28;20044;-85
2023/01/26 00:58:23;;;;;;;34.47;14.95;;;;;;;;;;8486152;27;20495;-86
2023/01/26 01:02:26;;;;;;;33.97;15.68;;;;;;;;;;8486706;27;20502;-85
2023/01/26 01:06:30;;;;;;;41.60;16.75;;;;;;;;;;8499109;27;20058;-86
2023/01/26 01:10:33;;;;;;;62.92;23.60;;;;;;;;;;8486725;27;20436;-83
2023/01/26 01:14:36;;;;;;;41.83;16.67;;;;;;;;;;8499101;27;20122;-85
2023/01/26 01:18:39;;;;;;;32.35;14.00;;;;;;;;;;8499359;27;20046;-87
2023/01/26 01:22:44;;;;;;;26.40;11.15;;;;;;;;;;8481969;27;20406;-85
2023/01/26 01:26:47;;;;;;;52.45;17.02;;;;;;;;;;8491116;27;20132;-84
2023/01/26 01:30:50;;;;;;;34.33;14.38;;;;;;;;;;8479995;27;20100;-88
2023/01/26 01:34:53;;;;;;;23.35;11.40;;;;;;;;;;8498465;27;20050;-89
2023/01/26 01:38:57;;;;;;;23.25;10.82;;;;;;;;;;8498135;27;20047;-83
2023/01/26 01:43:00;;;;;;;23.63;12.13;;;;;;;;;;8485886;27;20043;-84
2023/01/26 01:47:06;;;;;;;30.80;11.95;;;;;;;;;;8484029;27;20519;-86
2023/01/26 01:51:15;;;;;;;25.35;12.50;;;;;;;;;;8486053;27;20060;-88
2023/01/26 01:55:20;;;;;;;22.75;10.30;;;;;;;;;;8496620;27;20055;-84
2023/01/26 01:59:24;;;;;;;26.67;10.90;;;;;;;;;;8463647;28;20044;-85
2023/01/26 02:03:28;;;;;;;22.90;11.00;;;;;;;;;;8479631;27;20062;-88
2023/01/26 02:07:33;;;;;;;25.80;11.65;;;;;;;;;;8497712;27;20047;-88
2023/01/26 02:11:43;;;;;;;28.48;11.90;;;;;;;;;;8483829;27;20040;-86
2023/01/26 02:15:47;;;;;;;23.70;10.95;;;;;;;;;;8483887;27;20129;-84
2023/01/26 02:19:58;;;;;;;23.17;11.63;;;;;;;;;;8497512;27;20055;-86
2023/01/26 02:24:12;;;;;;;23.67;11.40;;;;;;;;;;8497406;27;20043;-85
2023/01/26 02:28:17;;;;;;;23.73;9.95;;;;;;;;;;8484224;27;20983;-85
2023/01/26 02:32:19;;;;;;;23.55;11.48;;;;;;;;;;8483749;27;20075;-84
2023/01/26 02:36:24;;;;;;;25.50;12.45;;;;;;;;;;8470493;27;20047;-89
2023/01/26 02:40:38;;;;;;;26.30;13.05;;;;;;;;;;8486956;27;20039;-86
2023/01/26 02:44:43;;;;;;;26.67;11.90;;;;;;;;;;8472370;28;20433;-87
2023/01/26 02:53:06;;;;;;;25.27;11.20;;;;;;;;;;8483340;28;20122;-84
2023/01/26 02:57:10;;;;;;;28.00;11.52;;;;;;;;;;8483061;28;20439;-85
2023/01/26 03:01:13;;;;;;;25.85;12.57;;;;;;;;;;8496744;28;20075;-90
2023/01/26 03:05:17;;;;;;;30.02;13.70;;;;;;;;;;8496463;28;20118;-83
2023/01/26 03:09:19;;;;;;;24.40;11.05;;;;;;;;;;8496756;28;20062;-87
2023/01/26 03:13:22;;;;;;;25.90;12.10;;;;;;;;;;8487170;27;20036;-85
2023/01/26 03:17:27;;;;;;;30.88;13.88;;;;;;;;;;8489475;27;20402;-84
2023/01/26 03:30:10;;;;;;;26.90;11.48;;;;;;;;;;8502976;27;20406;-87
2023/01/26 03:34:15;;;;;;;25.83;12.63;;;;;;;;;;8500268;27;20055;-85
2023/01/26 03:38:17;;;;;;;25.33;12.25;;;;;;;;;;8468662;28;20051;-85
2023/01/26 03:59:43;;;;;;;25.70;11.98;;;;;;;;;;8489888;27;20047;-83
2023/01/26 04:08:22;;;;;;;24.33;11.85;;;;;;;;;;8487995;27;20046;-84
2023/01/26 04:12:25;;;;;;;30.52;12.23;;;;;;;;;;8501681;27;20051;-86
2023/01/26 04:25:14;;;;;;;29.70;13.18;;;;;;;;;;8480480;27;20057;-83
2023/01/26 04:29:17;;;;;;;26.63;12.55;;;;;;;;;;8467166;28;20048;-85
2023/01/26 04:33:20;;;;;;;25.55;12.38;;;;;;;;;;8489086;27;20055;-86
2023/01/26 04:37:23;;;;;;;29.20;12.77;;;;;;;;;;8486306;27;20404;-85
2023/01/26 04:41:29;;;;;;;26.67;10.93;;;;;;;;;;8470939;27;20048;-84
2023/01/26 04:45:32;;;;;;;27.90;12.00;;;;;;;;;;8481978;27;20483;-85
2023/01/26 04:49:35;;;;;;;25.65;11.65;;;;;;;;;;8483713;27;20474;-90
2023/01/26 04:53:38;;;;;;;24.83;12.80;;;;;;;;;;8489573;27;20497;-83
2023/01/26 04:57:42;;;;;;;27.60;12.05;;;;;;;;;;8493247;27;20039;-86
2023/01/26 05:01:45;;;;;;;24.23;10.38;;;;;;;;;;8466021;27;20047;-87
2023/01/26 05:05:50;;;;;;;22.48;11.10;;;;;;;;;;8476499;27;20036;-85
2023/01/26 05:09:54;;;;;;;23.92;11.45;;;;;;;;;;8481061;27;20513;-87
2023/01/26 05:13:58;;;;;;;24.83;11.77;;;;;;;;;;8490386;27;20031;-84
2023/01/26 05:18:02;;;;;;;11.38;6.63;;;;;;;;;;8483690;27;20053;-86
2023/01/26 05:22:04;;;;;;;21.58;10.93;;;;;;;;;;8486610;27;20051;-84
2023/01/26 05:26:07;;;;;;;24.25;12.43;;;;;;;;;;8489605;27;20035;-89
2023/01/26 05:30:13;;;;;;;22.95;10.63;;;;;;;;;;8485044;27;20067;-87
2023/01/26 05:34:15;;;;;;;21.85;10.25;;;;;;;;;;8476466;27;20458;-84
2023/01/26 05:38:19;;;;;;;21.90;9.65;;;;;;;;;;8481712;27;20130;-84
2023/01/26 05:42:23;;;;;;;19.10;9.02;;;;;;;;;;8496060;27;20053;-85
2023/01/26 05:46:27;;;;;;;21.58;10.02;;;;;;;;;;8483684;27;20051;-87
2023/01/26 05:50:30;;;;;;;17.42;8.13;;;;;;;;;;8483297;27;20123;-87
2023/01/26 05:54:33;;;;;;;17.25;8.38;;;;;;;;;;8480762;27;20039;-85
2023/01/26 05:58:36;;;;;;;31.38;18.25;;;;;;;;;;8469953;27;20082;-84
2023/01/26 06:02:41;;;;;;;22.02;13.50;;;;;;;;;;8495587;27;20035;-89
2023/01/26 06:06:43;;;;;;;15.52;8.05;;;;;;;;;;8487912;27;20063;-86
2023/01/26 06:10:46;;;;;;;15.48;8.40;;;;;;;;;;8491556;27;20075;-88
2023/01/26 06:14:49;;;;;;;17.38;8.63;;;;;;;;;;8476994;27;20089;-89
2023/01/26 06:18:54;;;;;;;15.60;7.85;;;;;;;;;;8487599;27;20506;-84
2023/01/26 06:23:00;;;;;;;22.02;10.18;;;;;;;;;;8484592;27;20052;-87
2023/01/26 06:27:05;;;;;;;15.00;8.10;;;;;;;;;;8481704;27;20039;-85
2023/01/26 06:31:09;;;;;;;14.40;7.18;;;;;;;;;;8487197;27;20039;-86
2023/01/26 06:35:13;;;;;;;16.90;8.65;;;;;;;;;;8475691;27;20050;-86
2023/01/26 06:39:17;;;;;;;17.23;8.27;;;;;;;;;;8482664;27;20095;-86
2023/01/26 06:43:20;;;;;;;16.45;8.98;;;;;;;;;;8467721;27;20082;-87
2023/01/26 06:47:23;;;;;;;17.98;7.30;;;;;;;;;;8474513;28;20160;-85
2023/01/26 06:51:53;;;;;;;14.43;8.00;;;;;;;;;;8482122;28;20371;-84
2023/01/26 06:55:56;;;;;;;20.42;7.93;;;;;;;;;;8494792;28;20043;-85
2023/01/26 06:59:59;;;;;;;16.38;8.70;;;;;;;;;;8483672;28;20035;-89
2023/01/26 07:04:02;;;;;;;17.92;9.25;;;;;;;;;;8481996;28;20126;-88
2023/01/26 07:08:07;;;;;;;17.73;8.88;;;;;;;;;;8476578;28;20129;-89
2023/01/26 07:12:10;;;;;;;20.92;9.65;;;;;;;;;;8486791;28;20049;-89
2023/01/26 07:16:16;;;;;;;17.55;9.07;;;;;;;;;;8478336;28;20048;-87
2023/01/26 07:20:19;;;;;;;20.40;9.23;;;;;;;;;;8483591;28;20035;-86
2023/01/26 07:24:23;;;;;;;18.42;10.25;;;;;;;;;;8481165;28;20065;-88
2023/01/26 07:28:29;;;;;;;39.75;28.90;;;;;;;;;;8479970;28;20067;-91
2023/01/26 07:32:32;;;;;;;21.58;10.30;;;;;;;;;;8482242;28;20047;-86
2023/01/26 07:36:35;;;;;;;17.02;8.90;;;;;;;;;;8479618;28;20087;-82
2023/01/26 07:40:39;;;;;;;25.60;15.27;;;;;;;;;;8493627;28;20074;-88
2023/01/26 07:44:42;;;;;;;27.98;13.80;;;;;;;;;;8488792;28;20057;-89
2023/01/26 07:48:45;;;;;;;26.92;14.93;;;;;;;;;;8494132;28;20039;-89
2023/01/26 07:52:51;;;;;;;22.58;9.95;;;;;;;;;;8486097;28;20054;-86
2023/01/26 07:56:55;;;;;;;21.27;10.23;;;;;;;;;;8476707;27;20075;-85
2023/01/26 08:01:08;;;;;;;24.02;15.23;;;;;;;;;;8485447;27;20063;-91
2023/01/26 08:05:11;;;;;;;33.47;20.00;;;;;;;;;;8501777;27;20078;-88
2023/01/26 08:09:14;;;;;;;25.23;12.98;;;;;;;;;;8489463;27;20083;-86
2023/01/26 08:13:19;;;;;;;21.10;9.32;;;;;;;;;;8485958;27;20051;-85
2023/01/26 08:17:22;;;;;;;59.15;18.15;;;;;;;;;;8500773;27;20170;-84
2023/01/26 08:21:25;;;;;;;130.70;45.97;;;;;;;;;;8484732;27;20043;-87
2023/01/26 08:25:28;;;;;;;26.88;12.65;;;;;;;;;;8483364;27;20096;-85
2023/01/26 08:29:32;;;;;;;30.75;14.35;;;;;;;;;;8486231;27;20119;-87
2023/01/26 08:33:35;;;;;;;25.98;11.00;;;;;;;;;;8489763;27;20126;-86
2023/01/26 08:37:38;;;;;;;26.30;14.05;;;;;;;;;;8484497;27;20126;-85
2023/01/26 08:41:41;;;;;;;31.58;16.30;;;;;;;;;;8482209;27;20114;-88
2023/01/26 08:45:47;;;;;;;35.95;16.55;;;;;;;;;;8492551;27;20307;-90
2023/01/26 08:49:50;;;;;;;31.75;14.88;;;;;;;;;;8489077;27;20071;-85
2023/01/26 08:53:53;;;;;;;36.03;18.50;;;;;;;;;;8480008;27;20058;-88
2023/01/26 08:57:56;;;;;;;23.30;11.93;;;;;;;;;;8481578;27;20479;-88
2023/01/26 09:02:00;;;;;;;29.00;10.90;;;;;;;;;;8485143;27;20043;-87
2023/01/26 09:06:05;;;;;;;26.73;12.70;;;;;;;;;;8490142;27;20558;-86
2023/01/26 09:10:09;;;;;;;14.88;7.85;;;;;;;;;;8482227;27;20134;-86
2023/01/26 09:14:12;;;;;;;30.00;13.70;;;;;;;;;;8486040;27;20043;-91
2023/01/26 09:18:17;;;;;;;27.55;12.98;;;;;;;;;;8486632;27;20562;-91
2023/01/26 09:22:20;;;;;;;24.80;11.30;;;;;;;;;;8484172;27;20046;-89
2023/01/26 09:26:23;;;;;;;23.05;11.70;;;;;;;;;;8487743;27;20468;-88
2023/01/26 09:30:26;;;;;;;22.98;12.60;;;;;;;;;;8481096;27;20039;-86
2023/01/26 09:34:31;;;;;;;26.83;12.30;;;;;;;;;;8482225;27;20135;-87
2023/01/26 09:38:34;;;;;;;28.00;11.95;;;;;;;;;;8470924;27;20131;-89
2023/01/26 09:42:50;;;;;;;24.58;12.68;;;;;;;;;;8465696;27;20046;-88
2023/01/26 09:47:06;;;;;;;35.25;20.23;;;;;;;;;;8482849;27;20042;-87
2023/01/26 09:51:18;;;;;;;14.55;7.35;;;;;;;;;;8462525;27;20057;-89
2023/01/26 09:55:23;;;;;;;36.47;22.10;;;;;;;;;;8470891;27;20614;-87
2023/01/26 09:59:33;;;;;;;23.30;12.70;;;;;;;;;;8467742;27;20047;-88
2023/01/26 10:03:41;;;;;;;27.95;11.23;;;;;;;;;;8478299;27;20124;-89
2023/01/26 10:07:46;;;;;;;23.08;11.48;;;;;;;;;;8471507;27;20144;-87
2023/01/26 10:11:52;;;;;;;24.05;12.13;;;;;;;;;;8464765;27;20407;-87
2023/01/26 10:15:59;;;;;;;21.45;10.35;;;;;;;;;;8485415;27;20158;-89
2023/01/26 10:20:09;;;;;;;23.70;11.48;;;;;;;;;;8461544;27;20559;-89
2023/01/26 10:24:17;;;;;;;20.70;11.13;;;;;;;;;;8469089;27;20047;-86
2023/01/26 10:28:28;;;;;;;24.30;11.77;;;;;;;;;;8440936;27;20833;-89
2023/01/26 10:32:34;;;;;;;22.60;12.15;;;;;;;;;;8463694;27;20086;-86
2023/01/26 10:36:37;;;;;;;30.42;14.20;;;;;;;;;;8483372;27;20050;-88
2023/01/26 10:40:44;;;;;;;22.33;11.98;;;;;;;;;;8482178;27;20065;-87
2023/01/26 10:44:53;;;;;;;24.33;10.82;;;;;;;;;;8468769;27;20508;-91
2023/01/26 10:48:58;;;;;;;23.50;12.68;;;;;;;;;;8464430;28;20045;-88
2023/01/26 10:53:03;;;;;;;21.58;10.23;;;;;;;;;;8459938;28;20103;-87
2023/01/26 10:57:17;;;;;;;35.15;15.68;;;;;;;;;;8464577;28;20055;-86
2023/01/26 11:01:26;;;;;;;40.70;17.67;;;;;;;;;;8471303;28;20082;-86
2023/01/26 11:05:29;;;;;;;30.73;14.40;;;;;;;;;;8469456;28;20134;-85
2023/01/26 11:09:31;;;;;;;25.45;13.13;;;;;;;;;;8473243;28;20039;-88
2023/01/26 11:13:37;;;;;;;65.40;20.48;;;;;;;;;;8477149;28;20096;-91
2023/01/26 11:17:49;;;;;;;83.80;28.95;;;;;;;;;;8490418;28;20129;-90
2023/01/26 11:21:59;;;;;;;22.65;11.15;;;;;;;;;;8477081;28;20043;-90
2023/01/26 11:26:50;;;;;;;30.60;13.60;;;;;;;;;;8471951;28;20039;-89
2023/01/26 11:31:12;;;;;;;30.33;13.75;;;;;;;;;;8476651;28;20129;-88
2023/01/26 11:35:26;;;;;;;76.53;26.27;;;;;;;;;;8470932;27;20040;-88
2023/01/26 11:39:37;;;;;;;20.92;8.48;;;;;;;;;;8482865;27;20071;-86
2023/01/26 11:43:53;;;;;;;31.02;11.73;;;;;;;;;;8475620;27;20169;-87
2023/01/26 11:48:09;;;;;;;74.22;23.02;;;;;;;;;;8473836;27;20406;-85
2023/01/26 11:52:19;;;;;;;29.80;13.55;;;;;;;;;;8483215;27;20122;-88
2023/01/26 11:56:34;;;;;;;68.75;31.60;;;;;;;;;;8472754;27;20380;-90
2023/01/26 12:00:41;;;;;;;25.05;12.45;;;;;;;;;;8476674;27;20081;-90
2023/01/26 12:04:46;;;;;;;33.67;14.40;;;;;;;;;;8473767;27;20035;-88
2023/01/26 12:08:53;;;;;;;36.30;17.65;;;;;;;;;;8478688;27;20372;-86
2023/01/26 12:13:01;;;;;;;27.48;14.18;;;;;;;;;;8470918;27;20047;-87
2023/01/26 12:17:20;;;;;;;26.33;12.60;;;;;;;;;;8484578;27;20138;-88
2023/01/26 12:21:26;;;;;;;22.63;11.38;;;;;;;;;;8477769;27;20398;-86
2023/01/26 12:25:34;;;;;;;28.75;12.50;;;;;;;;;;8482904;27;20043;-88
2023/01/26 12:29:44;;;;;;;89.32;30.42;;;;;;;;;;8482360;27;20047;-85
2023/01/26 12:33:51;;;;;;;55.53;22.63;;;;;;;;;;8480782;27;20112;-87
2023/01/26 12:38:02;;;;;;;45.65;20.58;;;;;;;;;;8486489;27;20048;-88
2023/01/26 12:42:24;;;;;;;27.08;14.30;;;;;;;;;;8477500;27;20052;-90
2023/01/26 12:46:31;;;;;;;17.40;8.55;;;;;;;;;;8478745;27;20090;-90
2023/01/26 12:50:40;;;;;;;38.60;18.63;;;;;;;;;;8479416;27;20043;-89
2023/01/26 12:54:49;;;;;;;22.70;10.95;;;;;;;;;;8482468;27;20142;-85
2023/01/26 12:58:53;;;;;;;43.80;18.55;;;;;;;;;;8481549;27;20063;-89
2023/01/26 13:03:00;;;;;;;47.25;20.10;;;;;;;;;;8498089;27;20054;-84
2023/01/26 13:07:04;;;;;;;26.90;12.57;;;;;;;;;;8479783;27;20042;-83
2023/01/26 13:11:10;;;;;;;29.33;13.00;;;;;;;;;;8492002;27;20479;-85
2023/01/26 13:15:15;;;;;;;28.45;13.70;;;;;;;;;;8493447;27;20047;-84
2023/01/26 13:19:36;;;;;;;35.72;15.38;;;;;;;;;;8497466;27;20101;-85
2023/01/26 13:23:44;;;;;;;33.35;12.43;;;;;;;;;;8490859;27;20046;-86
2023/01/26 13:27:56;;;;;;;30.13;12.98;;;;;;;;;;8492075;27;20058;-86
2023/01/26 13:32:02;;;;;;;38.28;15.70;;;;;;;;;;8507500;27;20073;-88
2023/01/26 13:36:15;;;;;;;23.42;11.70;;;;;;;;;;8496584;27;20047;-88
2023/01/26 13:40:21;;;;;;;24.17;11.20;;;;;;;;;;8493312;27;20352;-89
2023/01/26 13:44:36;;;;;;;49.90;19.42;;;;;;;;;;8492260;27;20053;-85
2023/01/26 13:48:45;;;;;;;40.03;19.70;;;;;;;;;;8484083;27;20039;-85
2023/01/26 13:52:48;;;;;;;25.75;12.65;;;;;;;;;;8499795;27;20046;-85
2023/01/26 13:57:02;;;;;;;27.38;14.23;;;;;;;;;;8485304;27;20040;-90
2023/01/26 14:01:12;;;;;;;19.85;10.27;;;;;;;;;;8496135;27;20055;-87
2023/01/26 14:05:22;;;;;;;28.02;12.05;;;;;;;;;;8481783;27;20217;-86
2023/01/26 14:09:27;;;;;;;29.38;12.43;;;;;;;;;;8498716;27;20165;-89
2023/01/26 14:13:33;;;;;;;26.20;12.65;;;;;;;;;;8494216;27;20566;-87
2023/01/26 14:17:49;;;;;;;24.00;11.75;;;;;;;;;;8500266;27;20063;-88
2023/01/26 14:21:54;;;;;;;31.13;14.77;;;;;;;;;;8481343;27;21491;-86
2023/01/26 14:26:00;;;;;;;24.40;11.70;;;;;;;;;;8492624;27;20562;-86
2023/01/26 14:30:21;;;;;;;27.08;12.75;;;;;;;;;;8483298;27;20075;-93
2023/01/26 14:34:28;;;;;;;29.05;13.93;;;;;;;;;;8477452;27;20062;-88
2023/01/26 14:38:41;;;;;;;35.28;15.43;;;;;;;;;;8474446;27;20066;-89
2023/01/26 14:42:44;;;;;;;34.15;15.52;;;;;;;;;;8464516;27;20043;-88
2023/01/26 14:46:56;;;;;;;57.22;23.25;;;;;;;;;;8476596;28;20471;-88
2023/01/26 14:51:03;;;;;;;27.63;11.52;;;;;;;;;;8465118;28;20498;-88
2023/01/26 14:55:12;;;;;;;32.22;15.40;;;;;;;;;;8470372;28;20135;-86
2023/01/26 14:59:22;;;;;;;29.58;15.50;;;;;;;;;;8470086;27;20047;-87
2023/01/26 15:03:29;;;;;;;30.90;14.63;;;;;;;;;;8472222;28;20043;-88
2023/01/26 15:07:41;;;;;;;34.63;19.02;;;;;;;;;;8466810;27;20055;-91
2023/01/26 15:16:17;;;;;;;30.58;14.95;;;;;;;;;;8483899;27;20118;-88
2023/01/26 15:20:39;;;;;;;54.53;24.58;;;;;;;;;;8479462;27;20067;-92
2023/01/26 15:24:46;;;;;;;68.60;32.40;;;;;;;;;;8484259;27;20089;-86
2023/01/26 15:28:51;;;;;;;65.10;32.78;;;;;;;;;;8480437;27;20470;-87
2023/01/26 15:32:54;;;;;;;26.38;12.90;;;;;;;;;;8485343;27;20086;-87
2023/01/26 15:37:03;;;;;;;89.40;42.60;;;;;;;;;;8488038;27;20538;-85
2023/01/26 15:41:16;;;;;;;59.05;21.17;;;;;;;;;;8496677;27;20433;-87
2023/01/26 15:45:28;;;;;;;59.65;21.98;;;;;;;;;;8483940;27;20473;-93
2023/01/26 15:49:31;;;;;;;55.08;23.17;;;;;;;;;;8488764;27;20048;-84
2023/01/26 15:53:34;;;;;;;29.02;13.15;;;;;;;;;;8457901;27;20055;-85
2023/01/26 15:57:39;;;;;;;40.45;18.38;;;;;;;;;;8499730;27;20111;-90
2023/01/26 16:01:44;;;;;;;40.50;19.58;;;;;;;;;;8484138;27;20071;-83
2023/01/26 16:05:48;;;;;;;29.45;12.52;;;;;;;;;;8494068;27;20451;-83
2023/01/26 16:09:52;;;;;;;87.75;34.10;;;;;;;;;;8499574;27;20398;-85
2023/01/26 16:13:57;;;;;;;73.15;30.52;;;;;;;;;;8490569;27;20114;-84
2023/01/26 16:18:00;;;;;;;108.60;46.38;;;;;;;;;;8473561;27;20078;-84
2023/01/26 16:22:03;;;;;;;16.45;8.77;;;;;;;;;;8471105;27;20127;-91
2023/01/26 16:26:09;;;;;;;31.77;14.18;;;;;;;;;;8485546;27;20141;-83
2023/01/26 16:30:13;;;;;;;67.10;30.17;;;;;;;;;;8482705;27;20533;-85
2023/01/26 16:34:17;;;;;;;85.03;42.28;;;;;;;;;;8482140;27;20054;-91
2023/01/26 16:38:20;;;;;;;42.47;19.67;;;;;;;;;;8490320;27;20512;-89
2023/01/26 16:42:23;;;;;;;55.83;25.63;;;;;;;;;;8494037;27;20043;-86
2023/01/26 16:46:28;;;;;;;92.97;36.03;;;;;;;;;;8483641;27;20039;-87
2023/01/26 16:50:31;;;;;;;46.05;18.70;;;;;;;;;;8484442;27;20118;-87
2023/01/26 16:54:34;;;;;;;109.35;33.33;;;;;;;;;;8484467;27;20656;-85
2023/01/26 16:58:39;;;;;;;175.40;51.03;;;;;;;;;;8498564;27;20051;-85
2023/01/26 17:02:52;;;;;;;74.88;27.50;;;;;;;;;;8488182;27;20043;-93
2023/01/26 17:06:58;;;;;;;74.53;29.95;;;;;;;;;;8490625;27;20071;-84
2023/01/26 17:11:00;;;;;;;73.95;32.08;;;;;;;;;;8458008;27;20138;-84
2023/01/26 17:15:09;;;;;;;37.92;16.55;;;;;;;;;;8482009;27;20051;-83
2023/01/26 17:19:15;;;;;;;35.13;15.85;;;;;;;;;;8477913;27;20138;-85
2023/01/26 17:23:27;;;;;;;27.27;11.57;;;;;;;;;;8493945;27;20042;-85
2023/01/26 17:27:32;;;;;;;78.35;33.60;;;;;;;;;;8490633;27;20046;-89
2023/01/26 17:31:37;;;;;;;43.10;19.33;;;;;;;;;;8498149;27;20506;-84
2023/01/26 17:36:03;;;;;;;156.73;38.63;;;;;;;;;;8484368;27;20062;-84
2023/01/26 17:40:15;;;;;;;38.88;15.35;;;;;;;;;;8497904;27;20070;-86
2023/01/26 17:44:18;;;;;;;44.97;15.20;;;;;;;;;;8462466;28;20484;-85
2023/01/26 17:48:23;;;;;;;35.28;14.98;;;;;;;;;;8491912;27;20040;-86
2023/01/26 17:52:30;;;;;;;37.90;14.98;;;;;;;;;;8465804;27;20040;-85
2023/01/26 17:56:38;;;;;;;31.75;13.65;;;;;;;;;;8474319;27;20035;-85
2023/01/26 18:00:44;;;;;;;22.52;11.25;;;;;;;;;;8469218;27;20078;-85
2023/01/26 18:04:49;;;;;;;26.63;12.88;;;;;;;;;;8468292;27;20043;-85
2023/01/26 18:08:55;;;;;;;27.17;11.65;;;;;;;;;;8470326;27;20047;-88
2023/01/26 18:12:59;;;;;;;40.17;17.60;;;;;;;;;;8484749;27;20546;-84
2023/01/26 18:17:03;;;;;;;71.40;26.85;;;;;;;;;;8471271;27;20050;-85
2023/01/26 18:21:15;;;;;;;28.38;11.57;;;;;;;;;;8471490;27;20476;-85
2023/01/26 18:25:21;;;;;;;24.55;12.77;;;;;;;;;;8474886;27;20444;-85
2023/01/26 18:29:25;;;;;;;29.77;14.15;;;;;;;;;;8449365;27;20052;-85
2023/01/26 18:33:29;;;;;;;28.98;12.75;;;;;;;;;;8473670;27;20056;-88
2023/01/26 18:37:32;;;;;;;104.72;29.92;;;;;;;;;;8469174;27;20043;-85
2023/01/26 18:41:39;;;;;;;189.88;56.42;;;;;;;;;;8496475;27;20486;-85
2023/01/26 18:45:43;;;;;;;87.78;33.53;;;;;;;;;;8460833;28;20641;-84
2023/01/26 18:49:52;;;;;;;35.30;14.40;;;;;;;;;;8460678;28;20043;-86
2023/01/26 18:54:00;;;;;;;37.92;14.85;;;;;;;;;;8449486;28;20065;-84
2023/01/26 18:58:21;;;;;;;33.67;15.52;;;;;;;;;;8469422;28;20039;-86
2023/01/26 19:02:32;;;;;;;48.72;20.65;;;;;;;;;;8463614;28;20488;-85
2023/01/26 19:06:36;;;;;;;49.47;19.85;;;;;;;;;;8460805;28;20118;-85
2023/01/26 19:10:41;;;;;;;44.00;18.88;;;;;;;;;;8479484;28;20039;-86
2023/01/26 19:14:48;;;;;;;33.78;15.48;;;;;;;;;;8478886;28;20065;-84
2023/01/26 19:18:53;;;;;;;33.83;15.20;;;;;;;;;;8469078;28;20515;-84
2023/01/26 19:22:56;;;;;;;29.55;13.18;;;;;;;;;;8495714;28;20046;-84
2023/01/26 19:27:04;;;;;;;42.00;18.13;;;;;;;;;;8460136;27;20407;-86
2023/01/26 19:31:16;;;;;;;54.75;21.00;;;;;;;;;;8477256;27;20480;-89
2023/01/26 19:35:21;;;;;;;38.30;17.20;;;;;;;;;;8467322;27;20051;-86
2023/01/26 19:39:25;;;;;;;36.55;15.80;;;;;;;;;;8474773;27;20047;-85
2023/01/26 19:43:31;;;;;;;35.13;17.35;;;;;;;;;;8484555;27;20514;-87
2023/01/26 19:47:39;;;;;;;65.47;28.40;;;;;;;;;;8489109;27;20063;-84
2023/01/26 19:51:46;;;;;;;49.67;22.02;;;;;;;;;;8471475;28;20075;-84
2023/01/26 19:55:50;;;;;;;24.23;10.65;;;;;;;;;;8492213;27;20077;-86
2023/01/26 20:05:00;;;;;;;28.45;12.57;;;;;;;;;;8480985;27;20480;-88
2023/01/26 20:09:07;;;;;;;37.53;14.98;;;;;;;;;;8468316;27;20044;-85
2023/01/26 20:13:11;;;;;;;28.67;13.25;;;;;;;;;;8500193;27;20050;-85
2023/01/26 20:17:17;;;;;;;22.23;11.60;;;;;;;;;;8495645;27;20403;-84
2023/01/26 20:21:24;;;;;;;19.42;10.15;;;;;;;;;;8477941;27;20040;-86
2023/01/26 20:25:29;;;;;;;219.80;64.78;;;;;;;;;;8486056;27;20436;-84
2023/01/26 20:29:33;;;;;;;91.43;29.70;;;;;;;;;;8488096;27;20117;-84
2023/01/26 20:33:39;;;;;;;25.20;12.60;;;;;;;;;;8497632;27;20062;-84
2023/01/26 20:37:45;;;;;;;87.28;32.75;;;;;;;;;;8492690;27;20051;-90
2023/01/26 20:41:59;;;;;;;73.50;30.48;;;;;;;;;;8492834;27;20039;-90
2023/01/26 20:46:07;;;;;;;62.60;24.15;;;;;;;;;;8469822;27;20071;-89
2023/01/26 20:50:13;;;;;;;31.42;12.75;;;;;;;;;;8489788;27;20063;-84
2023/01/26 20:54:19;;;;;;;24.50;12.07;;;;;;;;;;8479750;27;20401;-87
2023/01/26 20:58:23;;;;;;;33.65;14.52;;;;;;;;;;8493651;27;20039;-85
2023/01/26 21:02:27;;;;;;;31.48;14.05;;;;;;;;;;8494763;27;20043;-89
2023/01/26 21:06:31;;;;;;;27.42;13.43;;;;;;;;;;8485713;27;20031;-84
2023/01/26 21:10:37;;;;;;;32.35;15.27;;;;;;;;;;8492477;27;20043;-85
2023/01/26 21:14:42;;;;;;;34.08;13.20;;;;;;;;;;8496881;27;20102;-84
2023/01/26 21:18:46;;;;;;;31.17;12.95;;;;;;;;;;8473854;27;20039;-91
2023/01/26 21:22:50;;;;;;;26.80;12.82;;;;;;;;;;8499055;27;20043;-85
2023/01/26 21:26:57;;;;;;;98.38;32.25;;;;;;;;;;8485457;27;20123;-85
2023/01/26 21:31:02;;;;;;;43.33;17.33;;;;;;;;;;8472906;27;20043;-84
2023/01/26 21:35:06;;;;;;;61.33;22.08;;;;;;;;;;8408423;28;20054;-84
2023/01/26 21:39:13;;;;;;;104.82;34.40;;;;;;;;;;8404721;28;20449;-85
2023/01/26 21:43:18;;;;;;;33.00;13.68;;;;;;;;;;8425433;28;20067;-84
2023/01/26 21:47:21;;;;;;;70.03;24.70;;;;;;;;;;8403626;28;20691;-84
2023/01/26 21:55:47;;;;;;;399.85;116.13;;;;;;;;;;8391832;28;20127;-91
2023/01/26 21:59:51;;;;;;;279.75;78.18;;;;;;;;;;8405564;28;20045;-92
2023/01/26 22:03:55;;;;;;;81.80;33.35;;;;;;;;;;8398689;28;20476;-84
2023/01/26 22:07:59;;;;;;;46.70;18.17;;;;;;;;;;8404137;28;20044;-88
2023/01/26 22:12:02;;;;;;;119.53;41.78;;;;;;;;;;8417045;28;20055;-85
2023/01/26 22:16:07;;;;;;;39.78;17.70;;;;;;;;;;8430897;28;20415;-85
2023/01/26 22:20:12;;;;;;;85.30;25.80;;;;;;;;;;8403650;28;20048;-84
2023/01/26 22:24:16;;;;;;;205.35;54.92;;;;;;;;;;8404772;28;20131;-89
2023/01/26 22:28:19;;;;;;;49.08;18.02;;;;;;;;;;8417810;28;20377;-85
2023/01/26 22:32:24;;;;;;;33.85;14.93;;;;;;;;;;8439556;28;20126;-91
2023/01/26 22:36:28;;;;;;;117.13;38.50;;;;;;;;;;8478544;27;20063;-87
2023/01/26 22:40:31;;;;;;;93.32;36.08;;;;;;;;;;8478134;27;20043;-83
2023/01/26 22:44:33;;;;;;;50.70;19.15;;;;;;;;;;8470384;27;20058;-82
2023/01/26 22:48:38;;;;;;;91.28;38.10;;;;;;;;;;8482629;27;20126;-84
2023/01/26 22:52:41;;;;;;;39.30;16.23;;;;;;;;;;8464310;28;20040;-90
2023/01/26 22:56:44;;;;;;;36.97;15.02;;;;;;;;;;8476234;27;20050;-85
2023/01/26 23:00:47;;;;;;;46.80;18.38;;;;;;;;;;8477232;28;20070;-92
2023/01/26 23:04:51;;;;;;;37.88;16.67;;;;;;;;;;8476551;28;20043;-89
2023/01/26 23:08:54;;;;;;;29.58;13.32;;;;;;;;;;8469832;28;20058;-86
2023/01/26 23:12:57;;;;;;;48.45;18.60;;;;;;;;;;8467729;28;20572;-92
2023/01/26 23:17:00;;;;;;;40.72;16.02;;;;;;;;;;8477312;28;20499;-86
2023/01/26 23:21:05;;;;;;;33.33;12.88;;;;;;;;;;8489161;28;20051;-92
2023/01/26 23:29:28;;;;;;;35.35;16.23;;;;;;;;;;8490970;27;20039;-84
2023/01/26 23:33:33;;;;;;;40.30;17.55;;;;;;;;;;8486102;27;20055;-86
2023/01/26 23:37:37;;;;;;;30.33;13.63;;;;;;;;;;8488888;27;20039;-88
2023/01/26 23:41:40;;;;;;;38.15;17.33;;;;;;;;;;8503917;27;20047;-84
2023/01/26 23:45:43;;;;;;;36.25;14.07;;;;;;;;;;8490357;27;20142;-82
2023/01/26 23:49:45;;;;;;;32.95;14.75;;;;;;;;;;8485412;27;20495;-84
2023/01/26 23:53:50;;;;;;;40.33;16.40;;;;;;;;;;8487578;27;20483;-88
2023/01/26 23:57:53;;;;;;;40.60;19.80;;;;;;;;;;8490413;27;20050;-85
